VPCOH KPTK-KCAK
Flight info
| Callsign | VPCOH |
|---|---|
| Flight time | 0h 35m |
| Altitude | 21000 |
| Route | KZLOV2 WINNZ BRWNZ4 |
| Aircraft | B738/M-SDE2E3FGHIRWXY/LB1 |
Departure
| Time | 2026-04-19 01:47 |
|---|---|
| Airport | Oakland County International Airport (KPTK) |
Arrival
| Time | 2026-04-19 02:22 |
|---|---|
| Airport | Akron Canton Regional Airport (KCAK) |
| Time | Latitude | Longitude | Altitude | Speed | Heading |
|---|---|---|---|---|---|
| 2026-04-19 01:19 | 42.66301 | -83.42732 | 985 ft | 0 kts | 269° |
| 2026-04-19 01:39 | 42.66301 | -83.42735 | 985 ft | 1 kts | 269° |
| 2026-04-19 01:39 | 42.66303 | -83.42753 | 993 ft | 2 kts | 292° |
| 2026-04-19 01:40 | 42.66336 | -83.42769 | 992 ft | 8 kts | 9° |
| 2026-04-19 01:40 | 42.66389 | -83.42737 | 986 ft | 9 kts | 48° |
| 2026-04-19 01:40 | 42.66399 | -83.42647 | 992 ft | 10 kts | 88° |
| 2026-04-19 01:40 | 42.66402 | -83.42547 | 985 ft | 11 kts | 87° |
| 2026-04-19 01:41 | 42.66406 | -83.42449 | 985 ft | 10 kts | 88° |
| 2026-04-19 01:41 | 42.66408 | -83.42354 | 984 ft | 10 kts | 87° |
| 2026-04-19 01:41 | 42.66411 | -83.42254 | 984 ft | 11 kts | 90° |
| 2026-04-19 01:41 | 42.66414 | -83.42150 | 990 ft | 11 kts | 87° |
| 2026-04-19 01:42 | 42.66418 | -83.42043 | 983 ft | 11 kts | 88° |
| 2026-04-19 01:42 | 42.66421 | -83.41939 | 983 ft | 11 kts | 88° |
| 2026-04-19 01:42 | 42.66427 | -83.41741 | 987 ft | 10 kts | 88° |
| 2026-04-19 01:43 | 42.66429 | -83.41647 | 983 ft | 10 kts | 87° |
| 2026-04-19 01:43 | 42.66432 | -83.41555 | 986 ft | 10 kts | 87° |
| 2026-04-19 01:43 | 42.66435 | -83.41465 | 982 ft | 9 kts | 88° |
| 2026-04-19 01:43 | 42.66438 | -83.41377 | 982 ft | 9 kts | 88° |
| 2026-04-19 01:44 | 42.66440 | -83.41286 | 984 ft | 10 kts | 88° |
| 2026-04-19 01:44 | 42.66443 | -83.41188 | 981 ft | 10 kts | 88° |
| 2026-04-19 01:44 | 42.66446 | -83.41092 | 981 ft | 10 kts | 87° |
| 2026-04-19 01:44 | 42.66457 | -83.41030 | 989 ft | 1 kts | 24° |
| 2026-04-19 01:45 | 42.66461 | -83.41030 | 989 ft | 0 kts | 15° |
| 2026-04-19 01:46 | 42.66494 | -83.41022 | 987 ft | 7 kts | 2° |
| 2026-04-19 01:46 | 42.66534 | -83.41040 | 985 ft | 7 kts | 295° |
| 2026-04-19 01:46 | 42.66535 | -83.41067 | 983 ft | 2 kts | 266° |
| 2026-04-19 01:46 | 42.66525 | -83.41394 | 986 ft | 77 kts | 267° |
| 2026-04-19 01:47 | 42.66491 | -83.42477 | 1024 ft | 146 kts | 269° |
| 2026-04-19 01:47 | 42.66398 | -83.43914 | 1844 ft | 153 kts | 266° |
| 2026-04-19 01:47 | 42.66306 | -83.45313 | 3002 ft | 146 kts | 268° |
| 2026-04-19 01:47 | 42.66224 | -83.46932 | 3043 ft | 197 kts | 268° |
| 2026-04-19 01:48 | 42.66130 | -83.48856 | 3005 ft | 209 kts | 268° |
| 2026-04-19 01:48 | 42.66059 | -83.50850 | 3009 ft | 213 kts | 271° |
| 2026-04-19 01:48 | 42.66097 | -83.52879 | 3609 ft | 213 kts | 273° |
| 2026-04-19 01:48 | 42.66151 | -83.54864 | 4565 ft | 217 kts | 272° |
| 2026-04-19 01:49 | 42.66185 | -83.56999 | 5320 ft | 232 kts | 271° |
| 2026-04-19 01:49 | 42.66189 | -83.59229 | 6277 ft | 239 kts | 271° |
| 2026-04-19 01:49 | 42.66187 | -83.61488 | 7335 ft | 238 kts | 269° |
| 2026-04-19 01:49 | 42.66093 | -83.63716 | 8518 ft | 234 kts | 265° |
| 2026-04-19 01:50 | 42.65902 | -83.65901 | 9661 ft | 232 kts | 261° |
| 2026-04-19 01:50 | 42.65425 | -83.67994 | 10529 ft | 240 kts | 242° |
| 2026-04-19 01:50 | 42.64325 | -83.69836 | 10795 ft | 271 kts | 226° |
| 2026-04-19 01:50 | 42.62646 | -83.71308 | 11301 ft | 295 kts | 209° |
| 2026-04-19 01:51 | 42.60643 | -83.71922 | 12444 ft | 302 kts | 190° |
| 2026-04-19 01:51 | 42.58558 | -83.71432 | 13955 ft | 311 kts | 170° |
| 2026-04-19 01:51 | 42.56658 | -83.69813 | 14983 ft | 340 kts | 152° |
| 2026-04-19 01:51 | 42.54992 | -83.67388 | 15773 ft | 359 kts | 143° |
| 2026-04-19 01:52 | 42.53435 | -83.64674 | 16517 ft | 369 kts | 140° |
| 2026-04-19 01:52 | 42.51928 | -83.61884 | 16914 ft | 372 kts | 140° |
| 2026-04-19 01:52 | 42.50410 | -83.59040 | 16985 ft | 372 kts | 140° |
| 2026-04-19 01:52 | 42.48877 | -83.56197 | 16986 ft | 373 kts | 140° |
| 2026-04-19 01:53 | 42.47327 | -83.53363 | 16997 ft | 373 kts | 140° |
| 2026-04-19 01:53 | 42.45765 | -83.50544 | 16996 ft | 374 kts | 140° |
| 2026-04-19 01:53 | 42.44197 | -83.47739 | 16997 ft | 374 kts | 141° |
| 2026-04-19 01:53 | 42.42618 | -83.44935 | 16999 ft | 374 kts | 141° |
| 2026-04-19 01:54 | 42.41056 | -83.42167 | 17001 ft | 374 kts | 141° |
| 2026-04-19 01:54 | 42.39473 | -83.39372 | 16989 ft | 374 kts | 141° |
| 2026-04-19 01:54 | 42.37887 | -83.36575 | 16992 ft | 374 kts | 141° |
| 2026-04-19 01:54 | 42.36313 | -83.33802 | 16988 ft | 373 kts | 141° |
| 2026-04-19 01:55 | 42.34726 | -83.31009 | 16990 ft | 373 kts | 141° |
| 2026-04-19 01:55 | 42.33143 | -83.28228 | 16996 ft | 373 kts | 140° |
| 2026-04-19 01:55 | 42.31560 | -83.25448 | 16994 ft | 373 kts | 140° |
| 2026-04-19 01:55 | 42.29972 | -83.22663 | 16992 ft | 373 kts | 140° |
| 2026-04-19 01:56 | 42.28382 | -83.19876 | 16991 ft | 374 kts | 140° |
| 2026-04-19 01:56 | 42.26795 | -83.17097 | 16994 ft | 374 kts | 140° |
| 2026-04-19 01:56 | 42.25226 | -83.14353 | 16988 ft | 374 kts | 140° |
| 2026-04-19 01:56 | 42.23628 | -83.11561 | 16989 ft | 374 kts | 140° |
| 2026-04-19 01:57 | 42.22033 | -83.08776 | 16988 ft | 375 kts | 140° |
| 2026-04-19 01:57 | 42.20439 | -83.05994 | 16993 ft | 375 kts | 140° |
| 2026-04-19 01:57 | 42.18843 | -83.03213 | 16986 ft | 375 kts | 140° |
| 2026-04-19 01:57 | 42.17245 | -83.00430 | 16986 ft | 375 kts | 140° |
| 2026-04-19 01:58 | 42.15633 | -82.97626 | 16995 ft | 383 kts | 140° |
| 2026-04-19 01:58 | 42.13955 | -82.94725 | 17000 ft | 397 kts | 140° |
| 2026-04-19 01:58 | 42.12272 | -82.91801 | 16988 ft | 400 kts | 139° |
| 2026-04-19 01:58 | 42.10576 | -82.88842 | 16977 ft | 399 kts | 139° |
| 2026-04-19 01:59 | 42.08879 | -82.85884 | 16983 ft | 399 kts | 139° |
| 2026-04-19 01:59 | 42.07175 | -82.82927 | 16982 ft | 399 kts | 139° |
| 2026-04-19 01:59 | 42.06047 | -82.80973 | 16985 ft | 399 kts | 139° |
| 2026-04-19 01:59 | 42.04339 | -82.78020 | 16986 ft | 399 kts | 139° |
| 2026-04-19 02:00 | 42.02637 | -82.75082 | 16987 ft | 394 kts | 139° |
| 2026-04-19 02:00 | 42.00463 | -82.71308 | 16974 ft | 372 kts | 140° |
| 2026-04-19 02:00 | 41.99407 | -82.69480 | 16980 ft | 362 kts | 140° |
| 2026-04-19 02:00 | 41.97866 | -82.66835 | 16981 ft | 357 kts | 141° |
| 2026-04-19 02:01 | 41.96329 | -82.64208 | 16992 ft | 357 kts | 141° |
| 2026-04-19 02:01 | 41.94789 | -82.61576 | 17004 ft | 359 kts | 140° |
| 2026-04-19 02:01 | 41.93276 | -82.58878 | 16792 ft | 369 kts | 135° |
| 2026-04-19 02:01 | 41.92068 | -82.55770 | 16309 ft | 382 kts | 123° |
| 2026-04-19 02:02 | 41.91274 | -82.52342 | 15752 ft | 393 kts | 115° |
| 2026-04-19 02:02 | 41.90621 | -82.48774 | 15152 ft | 393 kts | 114° |
| 2026-04-19 02:02 | 41.89895 | -82.45300 | 14902 ft | 372 kts | 122° |
| 2026-04-19 02:02 | 41.88813 | -82.42289 | 14873 ft | 346 kts | 133° |
| 2026-04-19 02:03 | 41.87434 | -82.39643 | 14889 ft | 352 kts | 141° |
| 2026-04-19 02:03 | 41.85803 | -82.37050 | 14900 ft | 369 kts | 142° |
| 2026-04-19 02:03 | 41.84141 | -82.34450 | 14894 ft | 373 kts | 142° |
| 2026-04-19 02:03 | 41.82460 | -82.31811 | 14883 ft | 372 kts | 141° |
| 2026-04-19 02:04 | 41.80784 | -82.29170 | 14883 ft | 371 kts | 141° |
| 2026-04-19 02:04 | 41.79116 | -82.26537 | 14884 ft | 370 kts | 141° |
| 2026-04-19 02:04 | 41.77444 | -82.23895 | 14878 ft | 370 kts | 141° |
| 2026-04-19 02:04 | 41.75775 | -82.21257 | 14878 ft | 371 kts | 141° |
| 2026-04-19 02:05 | 41.74104 | -82.18618 | 14796 ft | 373 kts | 141° |
| 2026-04-19 02:05 | 41.72421 | -82.15962 | 14544 ft | 372 kts | 141° |
| 2026-04-19 02:05 | 41.70774 | -82.13360 | 14312 ft | 370 kts | 141° |
| 2026-04-19 02:05 | 41.69109 | -82.10730 | 14073 ft | 370 kts | 141° |
| 2026-04-19 02:06 | 41.67452 | -82.08116 | 13837 ft | 368 kts | 141° |
| 2026-04-19 02:06 | 41.65792 | -82.05502 | 13571 ft | 367 kts | 141° |
| 2026-04-19 02:06 | 41.64139 | -82.02902 | 13289 ft | 366 kts | 140° |
| 2026-04-19 02:06 | 41.62488 | -82.00308 | 13042 ft | 366 kts | 140° |
| 2026-04-19 02:07 | 41.60838 | -81.97718 | 12782 ft | 365 kts | 140° |
| 2026-04-19 02:07 | 41.59190 | -81.95132 | 12516 ft | 364 kts | 140° |
| 2026-04-19 02:07 | 41.57549 | -81.92560 | 12255 ft | 363 kts | 140° |
| 2026-04-19 02:07 | 41.55911 | -81.89995 | 12004 ft | 362 kts | 140° |
| 2026-04-19 02:08 | 41.54300 | -81.87472 | 11757 ft | 360 kts | 139° |
| 2026-04-19 02:08 | 41.52678 | -81.84934 | 11514 ft | 358 kts | 139° |
| 2026-04-19 02:08 | 41.51066 | -81.82413 | 11263 ft | 356 kts | 139° |
| 2026-04-19 02:08 | 41.49459 | -81.79905 | 11013 ft | 355 kts | 139° |
| 2026-04-19 02:09 | 41.47855 | -81.77404 | 10764 ft | 353 kts | 139° |
| 2026-04-19 02:09 | 41.46264 | -81.74924 | 10514 ft | 351 kts | 138° |
| 2026-04-19 02:09 | 41.44681 | -81.72459 | 10278 ft | 349 kts | 138° |
| 2026-04-19 02:09 | 41.43103 | -81.70004 | 10042 ft | 348 kts | 138° |
| 2026-04-19 02:10 | 41.41529 | -81.67556 | 9790 ft | 344 kts | 138° |
| 2026-04-19 02:10 | 41.40035 | -81.65222 | 9493 ft | 322 kts | 138° |
| 2026-04-19 02:10 | 41.38627 | -81.63017 | 9207 ft | 302 kts | 138° |
| 2026-04-19 02:10 | 41.37285 | -81.60926 | 8928 ft | 293 kts | 139° |
| 2026-04-19 02:11 | 41.35950 | -81.58861 | 8679 ft | 294 kts | 138° |
| 2026-04-19 02:11 | 41.34629 | -81.56820 | 8418 ft | 287 kts | 138° |
| 2026-04-19 02:11 | 41.33328 | -81.54812 | 8158 ft | 285 kts | 138° |
| 2026-04-19 02:11 | 41.32042 | -81.52827 | 7902 ft | 282 kts | 138° |
| 2026-04-19 02:12 | 41.30765 | -81.50856 | 7643 ft | 280 kts | 137° |
| 2026-04-19 02:12 | 41.29486 | -81.48885 | 7405 ft | 282 kts | 137° |
| 2026-04-19 02:12 | 41.28219 | -81.46933 | 7158 ft | 283 kts | 137° |
| 2026-04-19 02:12 | 41.26930 | -81.44946 | 6918 ft | 284 kts | 136° |
| 2026-04-19 02:13 | 41.25635 | -81.42952 | 6672 ft | 285 kts | 136° |
| 2026-04-19 02:13 | 41.24336 | -81.40951 | 6432 ft | 285 kts | 136° |
| 2026-04-19 02:13 | 41.23037 | -81.38952 | 6182 ft | 285 kts | 136° |
| 2026-04-19 02:13 | 41.21740 | -81.36955 | 5921 ft | 285 kts | 136° |
| 2026-04-19 02:14 | 41.20487 | -81.35029 | 5675 ft | 285 kts | 135° |
| 2026-04-19 02:14 | 41.19192 | -81.33039 | 5415 ft | 284 kts | 135° |
| 2026-04-19 02:14 | 41.17902 | -81.31056 | 5160 ft | 283 kts | 134° |
| 2026-04-19 02:14 | 41.16617 | -81.29082 | 4914 ft | 281 kts | 134° |
| 2026-04-19 02:15 | 41.15340 | -81.27122 | 4647 ft | 280 kts | 133° |
| 2026-04-19 02:15 | 41.14064 | -81.25167 | 4390 ft | 279 kts | 133° |
| 2026-04-19 02:15 | 41.12801 | -81.23233 | 4245 ft | 272 kts | 133° |
| 2026-04-19 02:15 | 41.11551 | -81.21440 | 4216 ft | 258 kts | 145° |
| 2026-04-19 02:16 | 41.09975 | -81.20611 | 4182 ft | 236 kts | 185° |
| 2026-04-19 02:16 | 41.08469 | -81.21100 | 4204 ft | 217 kts | 212° |
| 2026-04-19 02:16 | 41.07169 | -81.22016 | 4201 ft | 211 kts | 215° |
| 2026-04-19 02:16 | 41.06040 | -81.23140 | 4173 ft | 194 kts | 238° |
| 2026-04-19 02:17 | 41.05233 | -81.24476 | 4201 ft | 179 kts | 234° |
| 2026-04-19 02:17 | 41.04418 | -81.25660 | 4180 ft | 171 kts | 234° |
| 2026-04-19 02:17 | 41.03624 | -81.26823 | 4161 ft | 169 kts | 234° |
| 2026-04-19 02:17 | 41.02840 | -81.27961 | 4169 ft | 170 kts | 234° |
| 2026-04-19 02:18 | 41.02015 | -81.29155 | 3988 ft | 179 kts | 233° |
| 2026-04-19 02:18 | 41.01177 | -81.30358 | 3792 ft | 175 kts | 234° |
| 2026-04-19 02:18 | 41.00362 | -81.31528 | 3624 ft | 168 kts | 234° |
| 2026-04-19 02:18 | 40.99596 | -81.32628 | 3506 ft | 158 kts | 235° |
| 2026-04-19 02:19 | 40.98873 | -81.33670 | 3303 ft | 149 kts | 234° |
| 2026-04-19 02:19 | 40.98204 | -81.34634 | 3124 ft | 140 kts | 235° |
| 2026-04-19 02:19 | 40.97561 | -81.35560 | 2923 ft | 132 kts | 236° |
| 2026-04-19 02:20 | 40.96405 | -81.37228 | 2589 ft | 121 kts | 236° |
| 2026-04-19 02:20 | 40.95835 | -81.38051 | 2427 ft | 121 kts | 236° |
| 2026-04-19 02:20 | 40.95266 | -81.38870 | 2250 ft | 119 kts | 237° |
| 2026-04-19 02:20 | 40.94705 | -81.39679 | 2089 ft | 121 kts | 236° |
| 2026-04-19 02:21 | 40.94129 | -81.40511 | 1905 ft | 122 kts | 233° |
| 2026-04-19 02:21 | 40.93558 | -81.41332 | 1731 ft | 120 kts | 234° |
| 2026-04-19 02:21 | 40.92987 | -81.42153 | 1544 ft | 119 kts | 235° |
| 2026-04-19 02:21 | 40.92445 | -81.42950 | 1382 ft | 121 kts | 235° |
| 2026-04-19 02:22 | 40.91865 | -81.43767 | 1251 ft | 122 kts | 235° |
| 2026-04-19 02:22 | 40.91347 | -81.44523 | 1220 ft | 97 kts | 227° |
| 2026-04-19 02:22 | 40.91051 | -81.44930 | 1220 ft | 40 kts | 227° |
| 2026-04-19 02:22 | 40.90873 | -81.45186 | 1222 ft | 35 kts | 227° |
| 2026-04-19 02:23 | 40.90774 | -81.45317 | 1221 ft | 10 kts | 210° |
| 2026-04-19 02:23 | 40.90715 | -81.45293 | 1222 ft | 9 kts | 136° |
| 2026-04-19 02:23 | 40.90702 | -81.45223 | 1222 ft | 8 kts | 66° |
| 2026-04-19 02:23 | 40.90712 | -81.45204 | 1222 ft | 0 kts | 51° |
| 2026-04-19 02:24 | 40.90714 | -81.45202 | 1222 ft | 0 kts | 51° |
| 2026-04-19 02:24 | 40.90717 | -81.45197 | 1222 ft | 1 kts | 51° |
| 2026-04-19 02:24 | 40.90721 | -81.45190 | 1222 ft | 2 kts | 51° |
| 2026-04-19 02:24 | 40.90740 | -81.45161 | 1222 ft | 7 kts | 48° |
| 2026-04-19 02:25 | 40.90782 | -81.45101 | 1222 ft | 10 kts | 46° |
| 2026-04-19 02:25 | 40.90845 | -81.45016 | 1222 ft | 17 kts | 45° |
| 2026-04-19 02:25 | 40.90936 | -81.44893 | 1222 ft | 19 kts | 49° |
| 2026-04-19 02:25 | 40.91019 | -81.44771 | 1222 ft | 17 kts | 47° |
| 2026-04-19 02:26 | 40.91077 | -81.44643 | 1222 ft | 16 kts | 85° |
| 2026-04-19 02:26 | 40.91076 | -81.44494 | 1222 ft | 16 kts | 91° |
| 2026-04-19 02:26 | 40.91073 | -81.44351 | 1222 ft | 15 kts | 91° |
| 2026-04-19 02:26 | 40.91070 | -81.44211 | 1220 ft | 16 kts | 92° |
| 2026-04-19 02:27 | 40.91066 | -81.44074 | 1218 ft | 12 kts | 91° |
| 2026-04-19 02:27 | 40.91091 | -81.43978 | 1221 ft | 12 kts | 30° |
| 2026-04-19 02:27 | 40.91169 | -81.43952 | 1222 ft | 11 kts | 19° |
| 2026-04-19 02:27 | 40.91241 | -81.43912 | 1222 ft | 11 kts | 24° |
| 2026-04-19 02:28 | 40.91311 | -81.43873 | 1222 ft | 11 kts | 21° |
| 2026-04-19 02:28 | 40.91379 | -81.43889 | 1222 ft | 10 kts | 324° |
| 2026-04-19 02:28 | 40.91443 | -81.43930 | 1222 ft | 10 kts | 342° |
| 2026-04-19 02:28 | 40.91511 | -81.43942 | 1222 ft | 10 kts | 1° |
| 2026-04-19 02:29 | 40.91578 | -81.43924 | 1222 ft | 10 kts | 18° |
| 2026-04-19 02:29 | 40.91639 | -81.43878 | 1222 ft | 10 kts | 38° |
| 2026-04-19 02:29 | 40.91687 | -81.43815 | 1222 ft | 10 kts | 50° |
| 2026-04-19 02:29 | 40.91694 | -81.43749 | 1222 ft | 7 kts | 66° |
| 2026-04-19 02:30 | 40.91727 | -81.43700 | 1222 ft | 7 kts | 46° |
| 2026-04-19 02:30 | 40.91754 | -81.43661 | 1222 ft | 3 kts | 54° |
| 2026-04-19 02:30 | 40.91759 | -81.43633 | 1222 ft | 4 kts | 98° |
| 2026-04-19 02:30 | 40.91743 | -81.43604 | 1222 ft | 4 kts | 138° |
| 2026-04-19 02:31 | 40.91720 | -81.43578 | 1222 ft | 5 kts | 162° |
| 2026-04-19 02:31 | 40.91701 | -81.43591 | 1222 ft | 0 kts | 220° |
| 2026-04-19 02:31 | 40.91700 | -81.43593 | 1222 ft | 0 kts | 220° |
| 2026-04-19 02:31 | 40.91699 | -81.43594 | 1222 ft | 0 kts | 220° |